Time;durP1;ratioP1;P1;durP2;ratioP2;P2;SDS_P1;SDS_P2;PMS_P1;PMS_P2;Temp;Humidity;BMP_temperature;BMP_pressure;BME280_temperature;BME280_humidity;BME280_pressure;Samples;Min_cycle;Max_cycle;Signal;HPM_P1;HPM_P2
2022/04/27 00:00:36;;;;;;;11.38;8.45;;;1.60;99.90;;;;;;4963462;28;20492;-73
2022/04/27 00:03:03;;;;;;;12.07;9.23;;;1.60;99.90;;;;;;4993036;28;20048;-73
2022/04/27 00:05:29;;;;;;;10.68;8.98;;;1.60;99.90;;;;;;4975319;28;20041;-73
2022/04/27 00:07:56;;;;;;;9.93;7.55;;;1.60;99.90;;;;;;4990052;28;20064;-73
2022/04/27 00:10:21;;;;;;;10.90;8.68;;;1.50;99.90;;;;;;4989786;28;20084;-73
2022/04/27 00:12:48;;;;;;;11.68;9.00;;;1.50;99.90;;;;;;4998761;28;20046;-73
2022/04/27 00:15:14;;;;;;;12.57;8.93;;;1.50;99.90;;;;;;5003119;28;20180;-73
2022/04/27 00:17:40;;;;;;;10.48;8.15;;;1.50;99.90;;;;;;4987567;28;20042;-73
2022/04/27 00:20:07;;;;;;;10.60;7.30;;;1.40;99.90;;;;;;4991120;28;20038;-74
2022/04/27 00:22:33;;;;;;;12.57;8.38;;;1.40;99.90;;;;;;4982800;28;20385;-73
2022/04/27 00:25:03;;;;;;;12.18;8.73;;;1.40;99.90;;;;;;4991524;28;20034;-73
2022/04/27 00:27:30;;;;;;;15.32;9.90;;;1.40;99.90;;;;;;4988990;28;20057;-73
2022/04/27 00:29:57;;;;;;;17.83;11.70;;;1.40;99.90;;;;;;4975170;28;20374;-73
2022/04/27 00:32:22;;;;;;;16.15;10.90;;;1.30;99.90;;;;;;4991010;28;20520;-73
2022/04/27 00:34:48;;;;;;;15.63;10.32;;;1.40;99.90;;;;;;4997799;28;20046;-73
2022/04/27 00:37:13;;;;;;;13.95;10.40;;;1.40;99.90;;;;;;4995067;28;20074;-73
2022/04/27 00:39:39;;;;;;;13.18;10.27;;;1.40;99.90;;;;;;4990523;28;20038;-73
2022/04/27 00:42:16;;;;;;;17.00;11.68;;;1.40;99.90;;;;;;4989099;28;20038;-73
2022/04/27 00:44:43;;;;;;;15.77;10.85;;;1.40;99.90;;;;;;4997616;28;20058;-73
2022/04/27 00:47:13;;;;;;;14.70;11.13;;;1.40;99.90;;;;;;4998128;28;20484;-73
2022/04/27 00:49:50;;;;;;;15.68;11.25;;;1.40;99.90;;;;;;4988937;28;20076;-73
2022/04/27 00:52:16;;;;;;;15.73;10.48;;;1.40;99.90;;;;;;4990882;28;20034;-73
2022/04/27 00:54:44;;;;;;;14.07;10.07;;;1.40;99.90;;;;;;4990602;28;20031;-73
2022/04/27 00:57:10;;;;;;;13.30;10.10;;;1.40;99.90;;;;;;4989478;28;20045;-73
2022/04/27 00:59:36;;;;;;;15.27;10.80;;;1.30;99.90;;;;;;4990361;28;20035;-73
2022/04/27 01:02:03;;;;;;;14.05;9.77;;;1.30;99.90;;;;;;4990872;28;20042;-73
2022/04/27 01:04:31;;;;;;;12.13;9.80;;;1.30;99.90;;;;;;4996768;28;20045;-73
2022/04/27 01:06:56;;;;;;;12.85;10.10;;;1.20;99.90;;;;;;5003275;28;20054;-73
2022/04/27 01:09:24;;;;;;;12.80;10.30;;;1.20;99.90;;;;;;4973107;28;20073;-73
2022/04/27 01:11:51;;;;;;;14.20;9.70;;;1.20;99.90;;;;;;4967123;28;20078;-73
2022/04/27 01:14:16;;;;;;;17.90;10.45;;;1.20;99.90;;;;;;4976086;28;20357;-73
2022/04/27 01:16:42;;;;;;;21.25;12.63;;;1.10;99.90;;;;;;4993548;28;20039;-73
2022/04/27 01:19:07;;;;;;;17.65;11.80;;;1.10;99.90;;;;;;4992614;28;20074;-73
2022/04/27 01:21:36;;;;;;;17.23;12.07;;;1.10;99.90;;;;;;4994411;28;20038;-73
2022/04/27 01:24:04;;;;;;;17.23;11.52;;;1.10;99.90;;;;;;4969696;28;20081;-73
2022/04/27 01:26:29;;;;;;;16.77;12.55;;;1.10;99.90;;;;;;4992615;28;20049;-73
2022/04/27 01:28:55;;;;;;;18.15;11.63;;;1.10;99.90;;;;;;4989632;28;20038;-73
2022/04/27 01:31:20;;;;;;;16.65;11.43;;;1.00;99.90;;;;;;4981777;28;20057;-73
2022/04/27 01:33:47;;;;;;;15.68;11.82;;;1.00;99.90;;;;;;4997294;28;20038;-73
2022/04/27 01:36:15;;;;;;;16.05;11.50;;;1.00;99.90;;;;;;5004862;28;20044;-73
2022/04/27 01:38:42;;;;;;;15.55;10.95;;;1.00;99.90;;;;;;4994202;28;20409;-73
2022/04/27 01:41:08;;;;;;;13.18;10.68;;;0.90;99.90;;;;;;4976578;28;20050;-73
2022/04/27 01:43:36;;;;;;;15.77;10.55;;;0.90;99.90;;;;;;4994573;28;20335;-73
2022/04/27 01:46:05;;;;;;;19.67;12.93;;;0.80;99.90;;;;;;4989222;28;20045;-73
2022/04/27 01:48:31;;;;;;;18.13;11.77;;;0.80;99.90;;;;;;4993685;28;20132;-73
2022/04/27 01:50:57;;;;;;;17.92;11.57;;;0.80;99.90;;;;;;4977486;28;20038;-73
2022/04/27 01:56:07;;;;;;;18.10;12.73;;;0.90;99.90;;;;;;4994250;28;20076;-74
2022/04/27 01:58:33;;;;;;;17.58;12.52;;;0.80;99.90;;;;;;4996974;28;20046;-73
2022/04/27 02:00:58;;;;;;;19.58;12.40;;;0.90;99.90;;;;;;4993564;28;20042;-73
2022/04/27 02:03:24;;;;;;;17.60;12.70;;;0.90;99.90;;;;;;4980494;28;20180;-73
2022/04/27 02:05:52;;;;;;;18.05;11.65;;;0.90;99.90;;;;;;5005159;28;20404;-74
2022/04/27 02:08:18;;;;;;;19.13;12.20;;;0.90;99.90;;;;;;4995424;28;20082;-73
2022/04/27 02:10:44;;;;;;;18.95;13.43;;;0.80;99.90;;;;;;4992674;28;20124;-73
2022/04/27 02:13:10;;;;;;;21.50;12.27;;;0.90;99.90;;;;;;4989842;28;20401;-74
2022/04/27 02:15:36;;;;;;;17.67;11.70;;;0.90;99.90;;;;;;4976335;28;20039;-73
2022/04/27 02:18:02;;;;;;;20.40;12.85;;;1.00;99.90;;;;;;4974172;28;20040;-73
2022/04/27 02:20:28;;;;;;;19.98;13.93;;;1.00;99.90;;;;;;4971708;28;20035;-73
2022/04/27 02:22:54;;;;;;;19.77;13.82;;;1.10;99.90;;;;;;4986428;28;20074;-73
2022/04/27 02:25:20;;;;;;;27.30;16.83;;;1.10;99.90;;;;;;4985056;28;20646;-73
2022/04/27 02:27:47;;;;;;;28.05;15.73;;;1.20;99.90;;;;;;4991295;28;20049;-73
2022/04/27 02:30:13;;;;;;;26.80;17.05;;;1.30;99.90;;;;;;4977122;28;20092;-73
2022/04/27 02:32:39;;;;;;;23.17;14.95;;;1.40;99.90;;;;;;4994394;28;20046;-73
2022/04/27 02:35:06;;;;;;;25.77;15.35;;;1.50;99.90;;;;;;4988243;28;20038;-73
2022/04/27 02:37:32;;;;;;;25.30;16.10;;;1.50;99.90;;;;;;5005392;28;20046;-73
2022/04/27 02:39:59;;;;;;;21.15;14.93;;;1.60;99.90;;;;;;4992966;28;20400;-73
2022/04/27 02:42:25;;;;;;;20.35;14.77;;;1.70;99.90;;;;;;4990287;28;20042;-74
2022/04/27 02:44:50;;;;;;;22.10;15.88;;;1.70;99.90;;;;;;4992183;28;20071;-73
2022/04/27 02:47:16;;;;;;;24.40;14.27;;;1.80;99.90;;;;;;5002677;28;20507;-74
2022/04/27 02:52:45;;;;;;;24.08;15.65;;;1.80;99.90;;;;;;5005875;22;20121;-75
2022/04/27 02:55:17;;;;;;;22.58;15.07;;;1.90;99.90;;;;;;4976815;28;20484;-75
2022/04/27 02:57:46;;;;;;;23.65;14.45;;;2.00;99.90;;;;;;4974379;28;20508;-75
2022/04/27 03:00:14;;;;;;;20.05;14.88;;;2.10;99.90;;;;;;4973259;28;20050;-75
2022/04/27 03:02:48;;;;;;;23.55;15.02;;;2.10;99.90;;;;;;4957336;28;20039;-76
2022/04/27 03:05:14;;;;;;;22.02;14.50;;;2.20;99.90;;;;;;4957261;28;20043;-76
2022/04/27 03:07:40;;;;;;;20.38;14.00;;;2.20;99.90;;;;;;4955717;28;20051;-76
2022/04/27 03:10:14;;;;;;;23.42;14.75;;;2.30;99.90;;;;;;4957081;28;20468;-75
2022/04/27 03:12:40;;;;;;;20.20;15.07;;;2.30;99.90;;;;;;4939005;28;20054;-75
2022/04/27 03:15:06;;;;;;;21.02;14.73;;;2.40;99.90;;;;;;4972399;28;20043;-75
2022/04/27 03:17:35;;;;;;;21.52;15.00;;;2.40;99.90;;;;;;4955044;28;20053;-75
2022/04/27 03:20:02;;;;;;;21.85;15.13;;;2.40;99.90;;;;;;4966458;28;20098;-75
2022/04/27 03:22:28;;;;;;;20.83;14.93;;;2.40;99.90;;;;;;4940291;29;20047;-75
2022/04/27 03:24:57;;;;;;;22.95;14.77;;;2.40;99.90;;;;;;4937148;29;20043;-75
2022/04/27 03:27:25;;;;;;;19.75;15.00;;;2.50;99.90;;;;;;4944592;28;20081;-75
2022/04/27 03:29:54;;;;;;;23.23;16.10;;;2.50;99.90;;;;;;4955481;28;20122;-75
2022/04/27 03:32:22;;;;;;;24.27;15.35;;;2.60;99.90;;;;;;4956107;28;20049;-75
2022/04/27 03:35:00;;;;;;;20.25;14.75;;;2.60;99.90;;;;;;4956914;28;20051;-75
2022/04/27 03:37:31;;;;;;;23.50;14.55;;;2.60;99.90;;;;;;4955306;28;20039;-75
2022/04/27 03:39:57;;;;;;;20.85;14.38;;;2.60;99.90;;;;;;4955409;28;20055;-75
2022/04/27 03:42:23;;;;;;;24.88;14.98;;;2.70;99.90;;;;;;4971811;28;20097;-75
2022/04/27 03:44:56;;;;;;;24.85;16.02;;;2.70;99.90;;;;;;4964252;28;20046;-75
2022/04/27 03:47:22;;;;;;;24.65;16.55;;;2.80;99.90;;;;;;4970036;28;20498;-75
2022/04/27 03:49:48;;;;;;;24.30;16.10;;;2.80;99.90;;;;;;4951922;28;20105;-75
2022/04/27 03:52:14;;;;;;;25.35;16.88;;;2.90;99.90;;;;;;4943499;28;20039;-75
2022/04/27 03:54:47;;;;;;;24.83;16.83;;;2.80;99.90;;;;;;4956453;28;20533;-75
2022/04/27 03:57:18;;;;;;;28.83;17.95;;;2.90;99.90;;;;;;4949421;28;20125;-75
2022/04/27 03:59:51;;;;;;;28.02;17.67;;;3.00;99.90;;;;;;4961024;28;20344;-75
2022/04/27 04:02:17;;;;;;;25.75;17.67;;;3.00;99.90;;;;;;4937675;28;20439;-76
2022/04/27 04:04:43;;;;;;;29.05;18.60;;;3.10;99.90;;;;;;4945210;28;20121;-75
2022/04/27 04:07:10;;;;;;;27.10;17.63;;;3.10;99.90;;;;;;4941146;28;20417;-75
2022/04/27 04:09:36;;;;;;;29.23;17.75;;;3.20;99.90;;;;;;4954526;28;20113;-75
2022/04/27 04:12:02;;;;;;;22.90;16.80;;;3.20;99.90;;;;;;4955877;28;20046;-75
2022/04/27 04:14:28;;;;;;;23.10;16.95;;;3.30;99.90;;;;;;4955595;28;20070;-75
2022/04/27 04:16:56;;;;;;;27.80;17.50;;;3.30;99.90;;;;;;4954707;28;20096;-75
2022/04/27 04:19:22;;;;;;;23.38;17.10;;;3.40;99.90;;;;;;4953574;28;20050;-75
2022/04/27 04:21:51;;;;;;;23.65;16.77;;;3.50;99.90;;;;;;4955238;28;20654;-75
2022/04/27 04:24:17;;;;;;;24.73;17.15;;;3.50;99.90;;;;;;4954849;28;20038;-75
2022/04/27 04:29:42;;;;;;;22.95;16.75;;;3.70;99.90;;;;;;4969552;28;20058;-75
2022/04/27 04:32:08;;;;;;;24.02;15.70;;;3.70;99.90;;;;;;4950255;28;20069;-75
2022/04/27 04:34:39;;;;;;;23.17;16.15;;;3.80;99.90;;;;;;4955809;28;20429;-75
2022/04/27 04:37:05;;;;;;;23.63;15.82;;;3.80;99.90;;;;;;4953361;28;20042;-75
2022/04/27 04:39:36;;;;;;;21.65;15.82;;;3.90;99.90;;;;;;4970370;28;20043;-75
2022/04/27 04:42:08;;;;;;;19.90;15.00;;;4.00;99.90;;;;;;4936183;29;20486;-75
2022/04/27 04:44:39;;;;;;;20.60;14.98;;;4.00;99.90;;;;;;4936625;29;20441;-75
2022/04/27 04:47:05;;;;;;;20.10;14.52;;;4.00;99.90;;;;;;4937486;28;20090;-75
2022/04/27 04:49:31;;;;;;;21.92;14.35;;;4.20;99.90;;;;;;4950025;28;20031;-75
2022/04/27 04:51:57;;;;;;;19.75;14.43;;;4.20;99.90;;;;;;4947225;28;20555;-76
2022/04/27 04:54:23;;;;;;;20.35;14.32;;;4.30;99.90;;;;;;4955338;28;20070;-75
2022/04/27 04:56:48;;;;;;;21.25;15.98;;;4.30;99.90;;;;;;4953583;28;20058;-75
2022/04/27 04:59:14;;;;;;;21.05;15.27;;;4.40;99.90;;;;;;4946750;28;20045;-75
2022/04/27 05:01:40;;;;;;;19.40;14.60;;;4.40;99.90;;;;;;4952539;28;20130;-75
2022/04/27 05:04:09;;;;;;;19.40;14.43;;;4.50;99.90;;;;;;4947195;28;20125;-76
2022/04/27 05:06:35;;;;;;;18.67;14.55;;;4.50;99.90;;;;;;4953131;28;20049;-75
2022/04/27 05:09:03;;;;;;;18.35;14.82;;;4.60;99.90;;;;;;4954025;28;20057;-75
2022/04/27 05:11:31;;;;;;;20.75;14.27;;;4.60;99.90;;;;;;4954422;28;20071;-75
2022/04/27 05:13:59;;;;;;;17.70;13.98;;;4.70;99.90;;;;;;4936141;29;20039;-75
2022/04/27 05:16:26;;;;;;;19.02;14.13;;;4.70;99.90;;;;;;4936174;28;20043;-76
2022/04/27 05:18:52;;;;;;;18.73;14.05;;;4.80;99.90;;;;;;4953247;28;20125;-75
2022/04/27 05:21:18;;;;;;;18.42;13.75;;;4.90;99.90;;;;;;4955020;28;20127;-75
2022/04/27 05:23:47;;;;;;;16.35;13.68;;;4.90;99.90;;;;;;4951358;28;20225;-75
2022/04/27 05:26:13;;;;;;;17.00;13.73;;;5.00;99.90;;;;;;4950038;28;20085;-75
2022/04/27 05:34:12;;;;;;;16.60;13.20;;;5.30;99.90;;;;;;4970804;28;20038;-75
2022/04/27 05:36:38;;;;;;;17.67;12.65;;;5.40;99.90;;;;;;4953544;28;20125;-75
2022/04/27 05:39:07;;;;;;;15.30;11.90;;;5.50;99.90;;;;;;4951746;28;20038;-75
2022/04/27 05:41:35;;;;;;;19.85;13.68;;;5.60;99.90;;;;;;4946456;28;20042;-75
2022/04/27 05:44:06;;;;;;;15.15;12.63;;;5.60;99.90;;;;;;4949984;29;20043;-75
2022/04/27 05:46:34;;;;;;;16.05;13.80;;;5.70;99.90;;;;;;4935700;28;20438;-76
2022/04/27 05:49:00;;;;;;;17.42;12.95;;;5.80;99.90;;;;;;4964579;28;20465;-75
2022/04/27 05:51:26;;;;;;;16.63;12.45;;;5.90;99.90;;;;;;4954866;28;20039;-75
2022/04/27 05:53:52;;;;;;;15.80;12.65;;;6.10;99.90;;;;;;4954614;28;20584;-75
2022/04/27 05:56:20;;;;;;;17.17;12.90;;;6.10;99.90;;;;;;4952571;28;20413;-75
2022/04/27 05:58:47;;;;;;;16.85;13.80;;;6.20;99.90;;;;;;4968991;28;20044;-75
2022/04/27 06:01:16;;;;;;;17.65;14.45;;;6.40;99.90;;;;;;4969808;28;20135;-75
2022/04/27 06:03:42;;;;;;;17.70;12.93;;;6.50;99.90;;;;;;4972568;28;20413;-75
2022/04/27 06:06:07;;;;;;;15.23;12.13;;;6.60;99.90;;;;;;4943976;29;20043;-76
2022/04/27 06:08:33;;;;;;;18.00;13.20;;;6.70;99.90;;;;;;4966561;28;20047;-75
2022/04/27 06:11:05;;;;;;;16.83;13.40;;;6.80;99.90;;;;;;4951809;29;20526;-76
2022/04/27 06:13:31;;;;;;;15.40;12.90;;;7.00;99.90;;;;;;4938409;29;20043;-76
2022/04/27 06:16:00;;;;;;;16.45;12.68;;;7.10;99.90;;;;;;4938505;29;20055;-75
2022/04/27 06:18:28;;;;;;;17.23;12.77;;;7.10;99.90;;;;;;4951049;28;20054;-76
2022/04/27 06:20:56;;;;;;;19.75;13.55;;;7.30;99.90;;;;;;4953028;29;20134;-75
2022/04/27 06:23:25;;;;;;;15.05;12.52;;;7.40;99.90;;;;;;4953186;28;20090;-76
2022/04/27 06:25:51;;;;;;;16.10;11.20;;;7.50;99.90;;;;;;4949785;28;20042;-76
2022/04/27 06:28:17;;;;;;;16.65;11.07;;;7.60;99.90;;;;;;4955169;28;20057;-76
2022/04/27 06:30:46;;;;;;;15.48;10.82;;;7.70;99.90;;;;;;4957672;28;20072;-76
2022/04/27 06:33:25;;;;;;;13.77;10.55;;;7.80;99.90;;;;;;4955732;28;20046;-77
2022/04/27 06:36:13;;;;;;;;;;;;;;;;;;;;;
2022/04/27 06:38:53;;;;;;;14.52;10.77;;;8.10;99.90;;;;;;4958604;28;20496;-74
2022/04/27 06:41:24;;;;;;;16.58;11.65;;;8.20;99.90;;;;;;4965711;28;20102;-73
2022/04/27 06:43:54;;;;;;;13.30;11.68;;;8.30;99.90;;;;;;4949850;28;20051;-74
2022/04/27 06:46:30;;;;;;;14.15;11.45;;;8.50;99.90;;;;;;4957675;28;20043;-74
2022/04/27 06:48:56;;;;;;;18.33;12.13;;;8.60;99.90;;;;;;4944848;29;20061;-74
2022/04/27 06:51:34;;;;;;;14.30;10.35;;;8.70;99.90;;;;;;4937063;29;20054;-74
2022/04/27 06:57:50;;;;;;;12.80;9.95;;;8.90;99.90;;;;;;4968155;28;20051;-74
2022/04/27 07:00:43;;;;;;;12.70;9.95;;;9.10;99.90;;;;;;4972332;28;20516;-74
2022/04/27 07:03:31;;;;;;;11.90;9.13;;;9.30;99.90;;;;;;4938661;29;20157;-74
2022/04/27 07:06:27;;;;;;;11.57;8.75;;;9.40;99.90;;;;;;4965563;28;20043;-75
2022/04/27 07:09:15;;;;;;;12.07;9.20;;;9.60;99.90;;;;;;4972443;28;20045;-75
2022/04/27 07:12:01;;;;;;;10.88;7.72;;;9.70;99.90;;;;;;4971673;28;20046;-75
2022/04/27 07:14:38;;;;;;;11.38;6.82;;;9.90;99.90;;;;;;4970836;28;20039;-75
2022/04/27 07:17:07;;;;;;;10.07;6.95;;;10.10;99.90;;;;;;4952557;28;20405;-75
2022/04/27 07:19:32;;;;;;;10.07;7.25;;;10.20;99.90;;;;;;4946543;28;20194;-75
2022/04/27 07:22:12;;;;;;;7.88;6.10;;;10.30;99.90;;;;;;4965945;28;20129;-74
2022/04/27 07:24:44;;;;;;;7.60;6.15;;;10.50;99.90;;;;;;4966975;28;20054;-74
2022/04/27 07:27:16;;;;;;;8.23;5.88;;;10.60;99.90;;;;;;4970122;28;20085;-74
2022/04/27 07:29:44;;;;;;;10.15;6.28;;;10.70;99.90;;;;;;4962436;28;20512;-74
2022/04/27 07:32:53;;;;;;;6.10;5.38;;;10.80;99.90;;;;;;4947691;28;20051;-74
2022/04/27 07:35:39;;;;;;;7.65;5.15;;;10.90;99.90;;;;;;4987982;28;20414;-74
2022/04/27 07:38:14;;;;;;;14.50;6.07;;;11.10;99.90;;;;;;4939681;29;20051;-74
2022/04/27 07:41:01;;;;;;;7.25;4.68;;;11.10;99.90;;;;;;4937365;29;20085;-74
2022/04/27 07:43:48;;;;;;;6.88;3.33;;;11.20;99.90;;;;;;4946620;28;20512;-75
2022/04/27 07:46:49;;;;;;;5.70;4.25;;;11.20;99.90;;;;;;4967202;28;20047;-75
2022/04/27 07:49:47;;;;;;;8.88;5.38;;;11.20;99.90;;;;;;4962711;28;20121;-75
2022/04/27 07:52:22;;;;;;;14.95;7.32;;;11.30;99.90;;;;;;4964715;28;20481;-75
2022/04/27 07:55:07;;;;;;;7.32;4.97;;;11.30;99.90;;;;;;4970098;28;20383;-76
2022/04/27 07:57:50;;;;;;;7.65;5.03;;;11.30;99.90;;;;;;4952718;28;20035;-74
2022/04/27 08:00:45;;;;;;;13.00;9.77;;;11.30;99.90;;;;;;4957638;28;20047;-76
2022/04/27 08:03:16;;;;;;;5.78;4.57;;;11.60;99.90;;;;;;4950953;28;20086;-75
2022/04/27 08:05:47;;;;;;;5.82;3.80;;;11.60;99.90;;;;;;4950308;28;20556;-75
2022/04/27 08:08:23;;;;;;;4.93;3.95;;;11.70;98.70;;;;;;4961083;28;20035;-75
2022/04/27 08:10:57;;;;;;;7.13;4.60;;;11.60;99.90;;;;;;4946889;29;20043;-75
2022/04/27 08:13:32;;;;;;;9.93;4.75;;;11.60;99.90;;;;;;4955171;28;20050;-75
2022/04/27 08:16:07;;;;;;;6.75;4.30;;;11.80;99.90;;;;;;4934654;29;20043;-75
2022/04/27 08:18:35;;;;;;;5.82;3.33;;;12.10;99.90;;;;;;4936040;29;20150;-75
2022/04/27 08:21:16;;;;;;;4.20;3.25;;;12.20;99.90;;;;;;4940599;28;20524;-75
2022/04/27 08:23:50;;;;;;;4.95;3.40;;;12.40;99.90;;;;;;4953514;28;20066;-75
2022/04/27 08:26:24;;;;;;;11.25;3.45;;;12.70;99.90;;;;;;4952471;29;20047;-75
2022/04/27 08:31:41;;;;;;;4.68;2.70;;;13.20;99.90;;;;;;4957605;28;20043;-76
2022/04/27 08:34:18;;;;;;;3.55;2.22;;;13.50;99.90;;;;;;4971902;28;20109;-76
2022/04/27 08:36:50;;;;;;;3.63;2.47;;;13.60;99.90;;;;;;4970743;28;20449;-76
2022/04/27 08:39:23;;;;;;;5.68;2.50;;;13.70;99.90;;;;;;4964492;28;20054;-76
2022/04/27 08:42:02;;;;;;;3.33;2.42;;;13.70;96.30;;;;;;4937217;29;20054;-76
2022/04/27 08:44:30;;;;;;;5.30;2.30;;;13.60;98.10;;;;;;4935658;29;20444;-76
2022/04/27 08:46:59;;;;;;;5.05;2.50;;;13.60;97.00;;;;;;4939957;28;20050;-75
2022/04/27 08:49:27;;;;;;;4.60;2.80;;;13.60;98.70;;;;;;4943950;29;20072;-75
2022/04/27 08:52:00;;;;;;;4.22;2.80;;;13.70;99.20;;;;;;4994174;23;20098;-72
2022/04/27 08:54:26;;;;;;;3.80;2.25;;;13.90;99.90;;;;;;4955818;28;20051;-73
2022/04/27 08:56:52;;;;;;;3.78;2.20;;;14.00;99.20;;;;;;4970911;28;20086;-72
2022/04/27 08:59:18;;;;;;;3.40;1.77;;;14.10;97.00;;;;;;4963281;28;20043;-72
2022/04/27 09:01:44;;;;;;;4.13;2.15;;;13.90;90.10;;;;;;4971586;28;20117;-72
2022/04/27 09:04:17;;;;;;;3.60;2.25;;;13.50;92.70;;;;;;4971607;28;20108;-72
2022/04/27 09:06:44;;;;;;;3.90;2.10;;;13.30;91.00;;;;;;4965495;28;20031;-72
2022/04/27 09:09:32;;;;;;;6.57;2.67;;;13.10;92.80;;;;;;4963131;28;20053;-72
2022/04/27 09:11:58;;;;;;;5.25;2.50;;;13.10;94.20;;;;;;4958059;28;20152;-72
2022/04/27 09:14:36;;;;;;;5.95;2.40;;;13.20;96.70;;;;;;4968208;28;20581;-73
2022/04/27 09:22:44;;;;;;;6.07;2.00;;;13.50;96.30;;;;;;4968562;28;20101;-72
2022/04/27 09:25:10;;;;;;;2.80;2.00;;;13.30;91.80;;;;;;4987913;28;20389;-72
2022/04/27 09:27:35;;;;;;;6.38;2.10;;;13.30;90.60;;;;;;4963071;28;20031;-72
2022/04/27 09:30:04;;;;;;;4.50;2.38;;;13.10;91.40;;;;;;4979128;28;20401;-72
2022/04/27 09:32:30;;;;;;;4.88;2.35;;;13.10;89.10;;;;;;4972878;28;20117;-72
2022/04/27 09:34:56;;;;;;;4.90;2.42;;;13.00;81.60;;;;;;4971256;28;20177;-72
2022/04/27 09:37:30;;;;;;;6.35;2.50;;;12.80;77.50;;;;;;4982983;28;20039;-72
2022/04/27 09:40:06;;;;;;;6.53;2.28;;;12.60;77.60;;;;;;4990902;28;20050;-72
2022/04/27 09:42:36;;;;;;;5.47;2.80;;;12.40;86.20;;;;;;4965671;28;20109;-73
2022/04/27 09:45:23;;;;;;;4.68;2.60;;;12.30;90.20;;;;;;4982882;28;20038;-72
2022/04/27 09:48:00;;;;;;;6.57;2.70;;;12.40;92.30;;;;;;4990681;28;20043;-72
2022/04/27 09:50:26;;;;;;;4.10;2.50;;;12.50;93.40;;;;;;4974865;28;20444;-72
2022/04/27 09:52:54;;;;;;;3.47;2.17;;;12.70;93.00;;;;;;4974454;28;20050;-72
2022/04/27 09:55:22;;;;;;;5.10;2.38;;;12.90;90.70;;;;;;4982669;28;20129;-72
2022/04/27 09:57:55;;;;;;;4.47;2.60;;;12.90;80.10;;;;;;4974621;28;20054;-72
2022/04/27 10:00:22;;;;;;;4.03;2.00;;;12.90;83.80;;;;;;4990988;28;20070;-73
2022/04/27 10:02:49;;;;;;;5.00;2.58;;;12.90;82.80;;;;;;4974707;28;20162;-72
2022/04/27 10:05:14;;;;;;;5.90;2.22;;;12.90;85.00;;;;;;4982344;28;20038;-72
2022/04/27 10:07:42;;;;;;;5.40;2.53;;;12.90;83.60;;;;;;4974437;28;20043;-72
2022/04/27 10:10:08;;;;;;;5.15;2.67;;;13.00;74.40;;;;;;4990494;28;20118;-72
2022/04/27 10:12:39;;;;;;;4.78;2.67;;;13.00;78.70;;;;;;4981288;28;20122;-72
2022/04/27 10:15:05;;;;;;;4.82;2.83;;;12.90;87.40;;;;;;4982324;28;20039;-72
2022/04/27 10:17:31;;;;;;;4.97;3.03;;;13.00;91.40;;;;;;4990787;28;20089;-72
2022/04/27 10:19:57;;;;;;;4.15;2.38;;;13.20;91.10;;;;;;4973915;28;20074;-72
2022/04/27 10:22:25;;;;;;;5.35;3.10;;;13.30;91.00;;;;;;4971248;28;20133;-72
2022/04/27 10:24:51;;;;;;;5.18;2.78;;;13.50;91.20;;;;;;4958428;28;20116;-71
2022/04/27 10:27:21;;;;;;;4.63;2.92;;;13.70;91.30;;;;;;4977545;28;20122;-73
2022/04/27 10:29:59;;;;;;;4.82;3.10;;;13.90;92.40;;;;;;4954086;29;20494;-71
2022/04/27 10:32:42;;;;;;;4.22;2.65;;;14.40;93.70;;;;;;4952821;28;20089;-72
2022/04/27 10:35:29;;;;;;;;;;;15.00;91.20;;;;;;4969063;28;20512;-72
2022/04/27 10:37:57;;;;;;;6.78;2.78;;;15.50;85.00;;;;;;4948933;29;19928;-72
2022/04/27 10:40:41;;;;;;;5.45;2.60;;;15.80;90.10;;;;;;4978513;28;20502;-72
2022/04/27 10:43:06;;;;;;;7.63;2.95;;;15.90;70.20;;;;;;4970069;28;20039;-75
2022/04/27 10:45:36;;;;;;;5.30;2.65;;;15.90;79.60;;;;;;4965434;28;20097;-74
2022/04/27 10:48:06;;;;;;;4.75;2.72;;;15.70;82.90;;;;;;4982018;28;20039;-73
2022/04/27 10:50:33;;;;;;;6.28;2.90;;;15.70;81.00;;;;;;4954477;29;20044;-73
2022/04/27 10:53:15;;;;;;;6.05;2.70;;;15.40;83.80;;;;;;4975879;28;20055;-73
2022/04/27 10:55:51;;;;;;;5.38;2.50;;;15.10;85.00;;;;;;4966625;28;20038;-72
2022/04/27 10:58:22;;;;;;;3.90;2.40;;;14.90;85.70;;;;;;4956828;28;20409;-72
2022/04/27 11:01:02;;;;;;;4.03;2.40;;;14.90;87.80;;;;;;4966789;28;20049;-73
2022/04/27 11:03:28;;;;;;;4.68;2.40;;;14.80;85.70;;;;;;4954406;28;20043;-73
2022/04/27 11:05:58;;;;;;;5.32;2.60;;;14.60;84.30;;;;;;4953412;28;20556;-73
2022/04/27 11:08:47;;;;;;;4.15;2.60;;;14.50;78.30;;;;;;4952511;28;20039;-73
2022/04/27 11:11:16;;;;;;;4.13;2.58;;;14.30;85.50;;;;;;4953121;28;20043;-73
2022/04/27 11:13:42;;;;;;;6.63;2.92;;;14.20;87.80;;;;;;4985097;28;20051;-72
2022/04/27 11:16:13;;;;;;;5.40;2.97;;;14.20;90.20;;;;;;4949565;28;20046;-76
2022/04/27 11:18:56;;;;;;;6.95;3.20;;;14.30;90.10;;;;;;4949885;28;20039;-72
2022/04/27 11:21:26;;;;;;;3.45;2.67;;;14.40;85.80;;;;;;4951754;29;20046;-72
2022/04/27 11:23:53;;;;;;;5.50;2.97;;;14.30;84.90;;;;;;4952828;29;20196;-72
2022/04/27 11:26:19;;;;;;;5.72;3.13;;;14.50;86.90;;;;;;4958999;28;20036;-73
2022/04/27 11:28:45;;;;;;;6.55;2.67;;;14.90;85.40;;;;;;4946981;28;20042;-73
2022/04/27 11:31:12;;;;;;;6.53;3.20;;;15.10;79.40;;;;;;4971998;28;20078;-73
2022/04/27 11:33:42;;;;;;;4.85;2.97;;;15.30;83.30;;;;;;4988399;28;20039;-72
2022/04/27 11:36:21;;;;;;;4.97;3.08;;;15.50;73.10;;;;;;4988281;28;20038;-72
2022/04/27 11:38:47;;;;;;;6.68;3.60;;;15.40;63.70;;;;;;4972829;28;20071;-72
2022/04/27 11:41:14;;;;;;;7.13;3.53;;;15.20;69.30;;;;;;4967981;28;20070;-73
2022/04/27 11:43:40;;;;;;;8.63;3.83;;;15.20;73.40;;;;;;4972658;28;20417;-72
2022/04/27 11:46:08;;;;;;;4.68;3.40;;;15.20;65.90;;;;;;4988758;28;20039;-72
2022/04/27 11:48:33;;;;;;;4.35;3.20;;;15.00;68.10;;;;;;4961327;28;20049;-72
2022/04/27 11:51:01;;;;;;;7.55;3.70;;;14.90;66.60;;;;;;4965892;28;20413;-72
2022/04/27 11:53:28;;;;;;;7.60;4.30;;;14.80;74.60;;;;;;4972375;28;20042;-73
2022/04/27 11:55:54;;;;;;;7.18;3.60;;;14.90;83.40;;;;;;4972377;28;20058;-72
2022/04/27 11:58:29;;;;;;;8.93;4.30;;;15.20;82.70;;;;;;4963216;28;20462;-72
2022/04/27 12:00:56;;;;;;;6.53;4.30;;;15.20;76.40;;;;;;4954394;28;20038;-72
2022/04/27 12:03:23;;;;;;;5.57;4.40;;;15.10;72.20;;;;;;4979326;28;20043;-72
2022/04/27 12:05:52;;;;;;;7.35;4.75;;;14.90;75.80;;;;;;4959849;28;20039;-72
2022/04/27 12:08:20;;;;;;;6.72;4.13;;;14.80;82.70;;;;;;4968135;28;20374;-72
2022/04/27 12:10:46;;;;;;;8.82;4.53;;;14.70;84.80;;;;;;4988386;28;20515;-72
2022/04/27 12:13:13;;;;;;;6.88;4.72;;;14.50;85.50;;;;;;4963195;28;20450;-72
2022/04/27 12:15:45;;;;;;;7.35;4.53;;;14.30;86.60;;;;;;4970985;28;20616;-72
2022/04/27 12:18:18;;;;;;;9.07;4.97;;;14.20;89.40;;;;;;4988066;28;20049;-72
2022/04/27 12:20:44;;;;;;;;;;;14.10;90.70;;;;;;4972300;28;20043;-72
2022/04/27 12:23:33;;;;;;;7.53;4.53;;;14.00;91.00;;;;;;4963922;28;19973;-72
2022/04/27 12:26:00;;;;;;;6.43;4.90;;;14.00;91.10;;;;;;4909558;29;20060;-72
2022/04/27 12:28:29;;;;;;;7.28;4.35;;;14.00;90.80;;;;;;4930105;29;20522;-72
2022/04/27 12:31:05;;;;;;;7.32;4.38;;;14.00;91.40;;;;;;4930353;29;20432;-72
2022/04/27 12:33:35;;;;;;;9.07;5.20;;;14.00;91.60;;;;;;4927205;29;20043;-72
2022/04/27 12:39:08;;;;;;;9.45;5.07;;;14.10;91.50;;;;;;4952615;29;20126;-73
2022/04/27 12:41:42;;;;;;;9.55;4.75;;;14.20;93.40;;;;;;4949484;29;20210;-72
2022/04/27 12:44:09;;;;;;;;;;;14.30;91.40;;;;;;4941464;29;20454;-72
2022/04/27 12:46:37;;;;;;;8.05;4.45;;;14.40;91.80;;;;;;4950400;29;19919;-72
2022/04/27 12:49:08;;;;;;;7.18;4.05;;;14.50;91.20;;;;;;4952361;29;20079;-72
2022/04/27 12:51:35;;;;;;;10.20;4.30;;;14.50;91.10;;;;;;4949700;29;20086;-72
2022/04/27 12:54:04;;;;;;;5.45;4.38;;;14.60;91.40;;;;;;4944405;29;20050;-72
2022/04/27 12:56:35;;;;;;;9.60;4.53;;;14.80;91.20;;;;;;4952304;29;20130;-72
2022/04/27 12:59:09;;;;;;;6.70;4.40;;;14.80;90.40;;;;;;4944915;29;20047;-72
2022/04/27 13:01:35;;;;;;;8.52;4.63;;;14.80;90.10;;;;;;4948191;29;20043;-72
2022/04/27 13:04:00;;;;;;;6.75;3.70;;;14.90;90.50;;;;;;4944323;29;20490;-73
2022/04/27 13:06:30;;;;;;;12.38;4.40;;;14.80;89.10;;;;;;4952184;28;20102;-73
2022/04/27 13:08:57;;;;;;;9.55;4.28;;;14.70;87.90;;;;;;4949910;29;20434;-73
2022/04/27 13:14:06;;;;;;;9.73;4.70;;;14.40;89.30;;;;;;4955337;28;20058;-73
2022/04/27 13:16:32;;;;;;;10.07;4.75;;;14.30;90.60;;;;;;4936881;29;20044;-73
2022/04/27 13:18:57;;;;;;;11.40;4.25;;;14.20;91.20;;;;;;4936602;29;20095;-73
2022/04/27 13:21:23;;;;;;;9.60;4.60;;;14.10;92.40;;;;;;4935962;29;20086;-73
2022/04/27 13:23:48;;;;;;;9.35;3.80;;;14.10;92.40;;;;;;4931963;29;20421;-74
2022/04/27 13:26:14;;;;;;;7.22;3.80;;;14.00;92.00;;;;;;4947222;29;20054;-73
2022/04/27 13:28:40;;;;;;;7.63;3.78;;;13.90;92.00;;;;;;4947498;29;20115;-73